sensor_id;sensor_type;location;lat;lon;timestamp;P1;durP1;ratioP1;P2;durP2;ratioP2
17993;SDS011;9122;48.406;9.984;2023-02-01T00:00:55;7.20;;;6.50;;
17993;SDS011;9122;48.406;9.984;2023-02-01T00:03:40;6.87;;;6.23;;
17993;SDS011;9122;48.406;9.984;2023-02-01T00:06:24;7.20;;;6.50;;
17993;SDS011;9122;48.406;9.984;2023-02-01T00:09:08;8.17;;;6.27;;
17993;SDS011;9122;48.406;9.984;2023-02-01T00:11:53;8.17;;;7.37;;
17993;SDS011;9122;48.406;9.984;2023-02-01T00:14:37;8.27;;;6.53;;
17993;SDS011;9122;48.406;9.984;2023-02-01T00:17:22;7.80;;;6.63;;
17993;SDS011;9122;48.406;9.984;2023-02-01T00:20:06;6.83;;;5.97;;
17993;SDS011;9122;48.406;9.984;2023-02-01T00:22:51;6.27;;;5.67;;
17993;SDS011;9122;48.406;9.984;2023-02-01T00:25:37;7.00;;;6.13;;
17993;SDS011;9122;48.406;9.984;2023-02-01T00:28:21;9.27;;;6.40;;
17993;SDS011;9122;48.406;9.984;2023-02-01T00:31:06;6.37;;;5.77;;
17993;SDS011;9122;48.406;9.984;2023-02-01T00:33:50;6.40;;;5.80;;
17993;SDS011;9122;48.406;9.984;2023-02-01T00:36:35;6.83;;;6.23;;
17993;SDS011;9122;48.406;9.984;2023-02-01T00:39:20;6.97;;;6.10;;
17993;SDS011;9122;48.406;9.984;2023-02-01T00:42:04;6.03;;;5.27;;
17993;SDS011;9122;48.406;9.984;2023-02-01T00:44:48;6.53;;;5.80;;
17993;SDS011;9122;48.406;9.984;2023-02-01T00:47:33;8.43;;;5.90;;
17993;SDS011;9122;48.406;9.984;2023-02-01T00:50:17;7.37;;;5.90;;
17993;SDS011;9122;48.406;9.984;2023-02-01T00:53:02;8.13;;;5.80;;
17993;SDS011;9122;48.406;9.984;2023-02-01T00:55:47;7.43;;;4.77;;
17993;SDS011;9122;48.406;9.984;2023-02-01T00:58:32;6.77;;;4.70;;
17993;SDS011;9122;48.406;9.984;2023-02-01T01:01:17;5.53;;;5.03;;
17993;SDS011;9122;48.406;9.984;2023-02-01T01:04:04;6.03;;;4.73;;
17993;SDS011;9122;48.406;9.984;2023-02-01T01:06:51;4.23;;;3.83;;
17993;SDS011;9122;48.406;9.984;2023-02-01T01:09:35;6.30;;;4.37;;
17993;SDS011;9122;48.406;9.984;2023-02-01T01:12:20;5.30;;;4.80;;
17993;SDS011;9122;48.406;9.984;2023-02-01T01:15:04;4.50;;;4.10;;
17993;SDS011;9122;48.406;9.984;2023-02-01T01:17:49;5.60;;;4.80;;
17993;SDS011;9122;48.406;9.984;2023-02-01T01:20:34;6.83;;;5.30;;
17993;SDS011;9122;48.406;9.984;2023-02-01T01:23:20;7.63;;;5.20;;
17993;SDS011;9122;48.406;9.984;2023-02-01T01:26:08;6.87;;;6.13;;
17993;SDS011;9122;48.406;9.984;2023-02-01T01:29:04;6.37;;;5.70;;
17993;SDS011;9122;48.406;9.984;2023-02-01T01:31:48;8.60;;;5.80;;
17993;SDS011;9122;48.406;9.984;2023-02-01T01:34:33;6.63;;;5.87;;
17993;SDS011;9122;48.406;9.984;2023-02-01T01:37:17;6.87;;;6.10;;
17993;SDS011;9122;48.406;9.984;2023-02-01T01:40:03;7.37;;;5.60;;
17993;SDS011;9122;48.406;9.984;2023-02-01T01:42:48;6.33;;;5.67;;
17993;SDS011;9122;48.406;9.984;2023-02-01T01:45:37;6.47;;;5.77;;
17993;SDS011;9122;48.406;9.984;2023-02-01T01:48:28;6.40;;;5.83;;
17993;SDS011;9122;48.406;9.984;2023-02-01T01:51:14;6.93;;;6.33;;
17993;SDS011;9122;48.406;9.984;2023-02-01T01:54:04;6.33;;;5.80;;
17993;SDS011;9122;48.406;9.984;2023-02-01T01:56:57;6.43;;;5.83;;
17993;SDS011;9122;48.406;9.984;2023-02-01T01:59:47;5.97;;;5.43;;
17993;SDS011;9122;48.406;9.984;2023-02-01T02:02:37;6.23;;;5.57;;
17993;SDS011;9122;48.406;9.984;2023-02-01T02:05:24;6.20;;;5.33;;
17993;SDS011;9122;48.406;9.984;2023-02-01T02:08:09;6.03;;;5.50;;
17993;SDS011;9122;48.406;9.984;2023-02-01T02:10:53;6.87;;;6.27;;
17993;SDS011;9122;48.406;9.984;2023-02-01T02:13:46;5.00;;;4.60;;
17993;SDS011;9122;48.406;9.984;2023-02-01T02:25:49;5.80;;;5.33;;
17993;SDS011;9122;48.406;9.984;2023-02-01T02:31:37;8.97;;;5.97;;
17993;SDS011;9122;48.406;9.984;2023-02-01T02:49:44;7.63;;;5.83;;
17993;SDS011;9122;48.406;9.984;2023-02-01T02:53:07;5.87;;;5.00;;
17993;SDS011;9122;48.406;9.984;2023-02-01T02:56:16;6.57;;;5.30;;
17993;SDS011;9122;48.406;9.984;2023-02-01T02:59:23;6.47;;;5.87;;
17993;SDS011;9122;48.406;9.984;2023-02-01T03:02:31;5.87;;;5.30;;
17993;SDS011;9122;48.406;9.984;2023-02-01T03:05:36;5.87;;;5.07;;
17993;SDS011;9122;48.406;9.984;2023-02-01T03:08:25;6.53;;;5.83;;
17993;SDS011;9122;48.406;9.984;2023-02-01T03:11:13;8.37;;;6.23;;
17993;SDS011;9122;48.406;9.984;2023-02-01T03:13:59;6.70;;;6.03;;
17993;SDS011;9122;48.406;9.984;2023-02-01T03:16:50;6.53;;;5.93;;
17993;SDS011;9122;48.406;9.984;2023-02-01T03:19:40;7.73;;;5.97;;
17993;SDS011;9122;48.406;9.984;2023-02-01T03:22:33;6.77;;;6.17;;
17993;SDS011;9122;48.406;9.984;2023-02-01T03:25:25;6.53;;;5.93;;
17993;SDS011;9122;48.406;9.984;2023-02-01T03:28:12;7.83;;;7.03;;
17993;SDS011;9122;48.406;9.984;2023-02-01T03:31:03;7.77;;;6.97;;
17993;SDS011;9122;48.406;9.984;2023-02-01T03:33:48;8.67;;;6.57;;
17993;SDS011;9122;48.406;9.984;2023-02-01T03:36:35;8.37;;;6.80;;
17993;SDS011;9122;48.406;9.984;2023-02-01T03:39:25;8.43;;;6.43;;
17993;SDS011;9122;48.406;9.984;2023-02-01T03:42:27;9.90;;;6.37;;
17993;SDS011;9122;48.406;9.984;2023-02-01T03:45:18;7.23;;;6.53;;
17993;SDS011;9122;48.406;9.984;2023-02-01T03:48:11;7.53;;;6.73;;
17993;SDS011;9122;48.406;9.984;2023-02-01T03:50:59;8.33;;;7.40;;
17993;SDS011;9122;48.406;9.984;2023-02-01T03:53:47;8.53;;;7.50;;
17993;SDS011;9122;48.406;9.984;2023-02-01T03:56:33;7.43;;;6.83;;
17993;SDS011;9122;48.406;9.984;2023-02-01T03:59:21;8.30;;;7.17;;
17993;SDS011;9122;48.406;9.984;2023-02-01T04:02:08;7.47;;;6.77;;
17993;SDS011;9122;48.406;9.984;2023-02-01T04:04:52;9.97;;;7.27;;
17993;SDS011;9122;48.406;9.984;2023-02-01T04:07:37;7.70;;;7.00;;
17993;SDS011;9122;48.406;9.984;2023-02-01T04:10:21;7.50;;;6.80;;
17993;SDS011;9122;48.406;9.984;2023-02-01T04:13:06;8.30;;;6.33;;
17993;SDS011;9122;48.406;9.984;2023-02-01T04:15:51;8.30;;;7.33;;
17993;SDS011;9122;48.406;9.984;2023-02-01T04:18:36;6.43;;;5.83;;
17993;SDS011;9122;48.406;9.984;2023-02-01T04:21:20;7.43;;;6.73;;
17993;SDS011;9122;48.406;9.984;2023-02-01T04:24:04;6.60;;;6.00;;
17993;SDS011;9122;48.406;9.984;2023-02-01T04:26:49;6.10;;;5.50;;
17993;SDS011;9122;48.406;9.984;2023-02-01T04:29:34;6.10;;;5.50;;
17993;SDS011;9122;48.406;9.984;2023-02-01T04:32:18;6.90;;;6.20;;
17993;SDS011;9122;48.406;9.984;2023-02-01T04:35:06;6.93;;;5.73;;
17993;SDS011;9122;48.406;9.984;2023-02-01T04:37:51;6.50;;;5.90;;
17993;SDS011;9122;48.406;9.984;2023-02-01T04:40:36;7.33;;;5.87;;
17993;SDS011;9122;48.406;9.984;2023-02-01T04:43:23;7.10;;;6.20;;
17993;SDS011;9122;48.406;9.984;2023-02-01T04:46:08;8.93;;;6.70;;
17993;SDS011;9122;48.406;9.984;2023-02-01T04:48:53;7.83;;;7.03;;
17993;SDS011;9122;48.406;9.984;2023-02-01T04:51:37;9.80;;;7.53;;
17993;SDS011;9122;48.406;9.984;2023-02-01T04:54:22;7.10;;;6.43;;
17993;SDS011;9122;48.406;9.984;2023-02-01T04:57:06;5.63;;;5.13;;
17993;SDS011;9122;48.406;9.984;2023-02-01T04:59:51;6.20;;;5.60;;
17993;SDS011;9122;48.406;9.984;2023-02-01T05:02:36;5.40;;;5.00;;
17993;SDS011;9122;48.406;9.984;2023-02-01T05:05:20;6.23;;;5.60;;
17993;SDS011;9122;48.406;9.984;2023-02-01T05:08:05;6.63;;;5.70;;
17993;SDS011;9122;48.406;9.984;2023-02-01T05:10:49;6.60;;;6.00;;
17993;SDS011;9122;48.406;9.984;2023-02-01T05:13:34;6.17;;;5.53;;
17993;SDS011;9122;48.406;9.984;2023-02-01T05:16:33;6.80;;;6.10;;
17993;SDS011;9122;48.406;9.984;2023-02-01T05:19:18;8.13;;;6.10;;
17993;SDS011;9122;48.406;9.984;2023-02-01T05:22:03;6.70;;;6.10;;
17993;SDS011;9122;48.406;9.984;2023-02-01T05:24:48;6.30;;;5.70;;
17993;SDS011;9122;48.406;9.984;2023-02-01T05:27:32;6.90;;;6.20;;
17993;SDS011;9122;48.406;9.984;2023-02-01T05:30:17;6.30;;;5.70;;
17993;SDS011;9122;48.406;9.984;2023-02-01T05:33:02;8.50;;;6.53;;
17993;SDS011;9122;48.406;9.984;2023-02-01T05:35:47;7.23;;;6.53;;
17993;SDS011;9122;48.406;9.984;2023-02-01T05:38:32;6.60;;;6.10;;
17993;SDS011;9122;48.406;9.984;2023-02-01T05:41:16;6.53;;;5.93;;
17993;SDS011;9122;48.406;9.984;2023-02-01T05:44:01;6.67;;;6.13;;
17993;SDS011;9122;48.406;9.984;2023-02-01T05:46:46;7.27;;;6.57;;
17993;SDS011;9122;48.406;9.984;2023-02-01T05:49:31;8.97;;;7.93;;
17993;SDS011;9122;48.406;9.984;2023-02-01T05:52:15;8.97;;;6.63;;
17993;SDS011;9122;48.406;9.984;2023-02-01T05:55:03;9.07;;;7.40;;
17993;SDS011;9122;48.406;9.984;2023-02-01T05:57:47;7.90;;;7.10;;
17993;SDS011;9122;48.406;9.984;2023-02-01T06:00:32;8.93;;;7.13;;
17993;SDS011;9122;48.406;9.984;2023-02-01T06:03:16;11.03;;;7.40;;
17993;SDS011;9122;48.406;9.984;2023-02-01T06:06:01;7.83;;;6.67;;
17993;SDS011;9122;48.406;9.984;2023-02-01T06:08:45;8.47;;;7.30;;
17993;SDS011;9122;48.406;9.984;2023-02-01T06:11:30;8.90;;;6.87;;
17993;SDS011;9122;48.406;9.984;2023-02-01T06:14:15;7.70;;;6.80;;
17993;SDS011;9122;48.406;9.984;2023-02-01T06:16:59;9.57;;;7.33;;
17993;SDS011;9122;48.406;9.984;2023-02-01T06:19:44;10.37;;;6.93;;
17993;SDS011;9122;48.406;9.984;2023-02-01T06:22:29;7.30;;;6.60;;
17993;SDS011;9122;48.406;9.984;2023-02-01T06:25:13;6.30;;;5.70;;
17993;SDS011;9122;48.406;9.984;2023-02-01T06:28:01;6.77;;;5.87;;
17993;SDS011;9122;48.406;9.984;2023-02-01T06:30:46;6.60;;;5.67;;
17993;SDS011;9122;48.406;9.984;2023-02-01T06:33:30;7.27;;;6.23;;
17993;SDS011;9122;48.406;9.984;2023-02-01T06:36:15;5.83;;;5.33;;
17993;SDS011;9122;48.406;9.984;2023-02-01T06:38:59;6.50;;;5.80;;
17993;SDS011;9122;48.406;9.984;2023-02-01T06:41:47;6.20;;;5.70;;
17993;SDS011;9122;48.406;9.984;2023-02-01T06:44:32;7.43;;;5.80;;
17993;SDS011;9122;48.406;9.984;2023-02-01T06:47:18;9.60;;;6.17;;
17993;SDS011;9122;48.406;9.984;2023-02-01T06:50:02;6.40;;;5.83;;
17993;SDS011;9122;48.406;9.984;2023-02-01T06:52:47;8.07;;;7.23;;
17993;SDS011;9122;48.406;9.984;2023-02-01T06:55:31;7.40;;;5.97;;
17993;SDS011;9122;48.406;9.984;2023-02-01T06:58:16;8.40;;;6.03;;
17993;SDS011;9122;48.406;9.984;2023-02-01T07:01:07;8.87;;;6.03;;
17993;SDS011;9122;48.406;9.984;2023-02-01T07:03:52;6.50;;;5.80;;
17993;SDS011;9122;48.406;9.984;2023-02-01T07:06:37;6.30;;;5.70;;
17993;SDS011;9122;48.406;9.984;2023-02-01T07:09:22;8.67;;;6.27;;
17993;SDS011;9122;48.406;9.984;2023-02-01T07:12:06;6.40;;;5.73;;
17993;SDS011;9122;48.406;9.984;2023-02-01T07:14:51;6.60;;;5.93;;
17993;SDS011;9122;48.406;9.984;2023-02-01T07:17:36;5.63;;;5.10;;
17993;SDS011;9122;48.406;9.984;2023-02-01T07:20:20;5.80;;;5.00;;
17993;SDS011;9122;48.406;9.984;2023-02-01T07:23:05;5.70;;;5.20;;
17993;SDS011;9122;48.406;9.984;2023-02-01T07:25:52;5.67;;;4.57;;
17993;SDS011;9122;48.406;9.984;2023-02-01T07:28:41;6.03;;;4.53;;
17993;SDS011;9122;48.406;9.984;2023-02-01T07:31:26;4.70;;;4.40;;
17993;SDS011;9122;48.406;9.984;2023-02-01T07:34:12;4.53;;;4.20;;
17993;SDS011;9122;48.406;9.984;2023-02-01T07:36:56;5.00;;;4.60;;
17993;SDS011;9122;48.406;9.984;2023-02-01T07:39:41;4.13;;;3.80;;
17993;SDS011;9122;48.406;9.984;2023-02-01T07:42:25;3.20;;;2.93;;
17993;SDS011;9122;48.406;9.984;2023-02-01T07:45:10;4.17;;;3.77;;
17993;SDS011;9122;48.406;9.984;2023-02-01T07:47:57;4.50;;;4.13;;
17993;SDS011;9122;48.406;9.984;2023-02-01T07:50:41;5.43;;;4.50;;
17993;SDS011;9122;48.406;9.984;2023-02-01T07:53:25;6.10;;;4.63;;
17993;SDS011;9122;48.406;9.984;2023-02-01T07:56:11;4.70;;;4.30;;
17993;SDS011;9122;48.406;9.984;2023-02-01T07:59:01;5.87;;;4.23;;
17993;SDS011;9122;48.406;9.984;2023-02-01T08:01:46;5.73;;;4.83;;
17993;SDS011;9122;48.406;9.984;2023-02-01T08:04:30;5.00;;;4.50;;
17993;SDS011;9122;48.406;9.984;2023-02-01T08:07:15;4.73;;;3.77;;
17993;SDS011;9122;48.406;9.984;2023-02-01T08:10:00;6.83;;;4.67;;
17993;SDS011;9122;48.406;9.984;2023-02-01T08:12:45;5.63;;;4.90;;
17993;SDS011;9122;48.406;9.984;2023-02-01T08:15:32;5.73;;;5.10;;
17993;SDS011;9122;48.406;9.984;2023-02-01T08:18:17;4.80;;;4.30;;
17993;SDS011;9122;48.406;9.984;2023-02-01T08:23:50;15.50;;;7.80;;
17993;SDS011;9122;48.406;9.984;2023-02-01T08:26:35;6.57;;;5.50;;
17993;SDS011;9122;48.406;9.984;2023-02-01T08:29:19;6.07;;;4.93;;
17993;SDS011;9122;48.406;9.984;2023-02-01T08:32:04;7.30;;;5.80;;
17993;SDS011;9122;48.406;9.984;2023-02-01T08:34:49;7.27;;;5.90;;
17993;SDS011;9122;48.406;9.984;2023-02-01T08:37:33;6.20;;;5.53;;
17993;SDS011;9122;48.406;9.984;2023-02-01T08:40:18;6.50;;;5.90;;
17993;SDS011;9122;48.406;9.984;2023-02-01T08:43:03;8.17;;;7.07;;
17993;SDS011;9122;48.406;9.984;2023-02-01T08:45:47;7.43;;;5.17;;
17993;SDS011;9122;48.406;9.984;2023-02-01T08:48:32;6.10;;;5.50;;
17993;SDS011;9122;48.406;9.984;2023-02-01T08:51:17;6.87;;;6.13;;
17993;SDS011;9122;48.406;9.984;2023-02-01T08:54:03;6.43;;;5.83;;
17993;SDS011;9122;48.406;9.984;2023-02-01T08:56:48;9.43;;;6.87;;
17993;SDS011;9122;48.406;9.984;2023-02-01T08:59:32;7.67;;;6.97;;
17993;SDS011;9122;48.406;9.984;2023-02-01T09:02:17;7.10;;;6.40;;
17993;SDS011;9122;48.406;9.984;2023-02-01T09:05:02;10.10;;;7.53;;
17993;SDS011;9122;48.406;9.984;2023-02-01T09:07:48;7.87;;;6.70;;
17993;SDS011;9122;48.406;9.984;2023-02-01T09:10:33;6.83;;;6.20;;
17993;SDS011;9122;48.406;9.984;2023-02-01T09:13:18;7.90;;;7.10;;
17993;SDS011;9122;48.406;9.984;2023-02-01T09:16:03;8.53;;;7.30;;
17993;SDS011;9122;48.406;9.984;2023-02-01T09:18:48;8.37;;;6.90;;
17993;SDS011;9122;48.406;9.984;2023-02-01T09:21:33;6.53;;;5.87;;
17993;SDS011;9122;48.406;9.984;2023-02-01T09:24:17;6.77;;;6.03;;
17993;SDS011;9122;48.406;9.984;2023-02-01T09:27:02;7.87;;;6.60;;
17993;SDS011;9122;48.406;9.984;2023-02-01T09:29:46;7.33;;;6.20;;
17993;SDS011;9122;48.406;9.984;2023-02-01T09:32:36;7.33;;;6.60;;
17993;SDS011;9122;48.406;9.984;2023-02-01T09:35:20;7.33;;;5.70;;
17993;SDS011;9122;48.406;9.984;2023-02-01T09:38:05;8.10;;;6.47;;
17993;SDS011;9122;48.406;9.984;2023-02-01T09:40:50;7.33;;;6.07;;
17993;SDS011;9122;48.406;9.984;2023-02-01T09:46:55;7.53;;;6.20;;
17993;SDS011;9122;48.406;9.984;2023-02-01T09:49:43;7.13;;;6.17;;
17993;SDS011;9122;48.406;9.984;2023-02-01T09:53:01;8.37;;;6.57;;
17993;SDS011;9122;48.406;9.984;2023-02-01T09:55:59;7.50;;;6.80;;
17993;SDS011;9122;48.406;9.984;2023-02-01T10:02:03;6.83;;;6.13;;
17993;SDS011;9122;48.406;9.984;2023-02-01T10:04:55;7.83;;;6.10;;
17993;SDS011;9122;48.406;9.984;2023-02-01T10:07:57;7.03;;;6.30;;
17993;SDS011;9122;48.406;9.984;2023-02-01T10:10:49;6.30;;;5.70;;
17993;SDS011;9122;48.406;9.984;2023-02-01T10:13:37;6.57;;;5.53;;
17993;SDS011;9122;48.406;9.984;2023-02-01T10:16:43;6.80;;;5.83;;
17993;SDS011;9122;48.406;9.984;2023-02-01T10:28:18;6.20;;;5.60;;
17993;SDS011;9122;48.406;9.984;2023-02-01T10:31:05;5.17;;;4.67;;
17993;SDS011;9122;48.406;9.984;2023-02-01T10:33:55;6.77;;;6.13;;
17993;SDS011;9122;48.406;9.984;2023-02-01T10:36:41;6.20;;;5.30;;
17993;SDS011;9122;48.406;9.984;2023-02-01T10:39:46;6.53;;;5.93;;
17993;SDS011;9122;48.406;9.984;2023-02-01T10:42:32;5.80;;;5.30;;
17993;SDS011;9122;48.406;9.984;2023-02-01T10:45:21;5.63;;;4.93;;
17993;SDS011;9122;48.406;9.984;2023-02-01T10:48:08;5.73;;;5.23;;
17993;SDS011;9122;48.406;9.984;2023-02-01T10:50:58;7.60;;;6.83;;
17993;SDS011;9122;48.406;9.984;2023-02-01T10:56:58;8.90;;;6.20;;
17993;SDS011;9122;48.406;9.984;2023-02-01T10:59:42;8.07;;;6.47;;
17993;SDS011;9122;48.406;9.984;2023-02-01T11:02:34;7.67;;;6.87;;
17993;SDS011;9122;48.406;9.984;2023-02-01T11:05:19;7.17;;;6.47;;
17993;SDS011;9122;48.406;9.984;2023-02-01T11:08:12;8.30;;;7.43;;
17993;SDS011;9122;48.406;9.984;2023-02-01T11:11:01;8.27;;;7.47;;
17993;SDS011;9122;48.406;9.984;2023-02-01T11:13:57;6.90;;;6.20;;
17993;SDS011;9122;48.406;9.984;2023-02-01T11:16:43;7.57;;;6.80;;
17993;SDS011;9122;48.406;9.984;2023-02-01T11:19:45;7.07;;;6.50;;
17993;SDS011;9122;48.406;9.984;2023-02-01T11:22:30;6.63;;;6.03;;
17993;SDS011;9122;48.406;9.984;2023-02-01T11:25:15;6.80;;;6.10;;
17993;SDS011;9122;48.406;9.984;2023-02-01T11:28:01;5.63;;;4.20;;
17993;SDS011;9122;48.406;9.984;2023-02-01T11:30:46;5.90;;;3.70;;
17993;SDS011;9122;48.406;9.984;2023-02-01T11:33:32;4.57;;;2.80;;
17993;SDS011;9122;48.406;9.984;2023-02-01T11:36:20;5.87;;;3.50;;
17993;SDS011;9122;48.406;9.984;2023-02-01T11:42:16;4.77;;;2.60;;
17993;SDS011;9122;48.406;9.984;2023-02-01T11:45:34;4.30;;;2.63;;
17993;SDS011;9122;48.406;9.984;2023-02-01T11:48:15;7.63;;;2.00;;
17993;SDS011;9122;48.406;9.984;2023-02-01T11:54:22;7.20;;;4.57;;
17993;SDS011;9122;48.406;9.984;2023-02-01T12:00:32;6.37;;;2.70;;
17993;SDS011;9122;48.406;9.984;2023-02-01T12:09:41;6.27;;;2.40;;
17993;SDS011;9122;48.406;9.984;2023-02-01T12:12:42;3.40;;;1.90;;
17993;SDS011;9122;48.406;9.984;2023-02-01T12:15:46;8.20;;;4.57;;
17993;SDS011;9122;48.406;9.984;2023-02-01T12:25:33;7.90;;;5.20;;
17993;SDS011;9122;48.406;9.984;2023-02-01T12:38:01;5.50;;;2.90;;
17993;SDS011;9122;48.406;9.984;2023-02-01T12:44:27;6.60;;;3.10;;
17993;SDS011;9122;48.406;9.984;2023-02-01T12:47:29;3.40;;;2.70;;
17993;SDS011;9122;48.406;9.984;2023-02-01T12:56:05;6.40;;;2.63;;
17993;SDS011;9122;48.406;9.984;2023-02-01T12:58:55;4.20;;;2.40;;
17993;SDS011;9122;48.406;9.984;2023-02-01T13:07:43;6.40;;;2.03;;
17993;SDS011;9122;48.406;9.984;2023-02-01T13:17:04;3.73;;;2.07;;
17993;SDS011;9122;48.406;9.984;2023-02-01T13:19:53;3.23;;;2.17;;
17993;SDS011;9122;48.406;9.984;2023-02-01T13:22:49;3.30;;;2.23;;
17993;SDS011;9122;48.406;9.984;2023-02-01T13:25:40;3.17;;;2.43;;
17993;SDS011;9122;48.406;9.984;2023-02-01T13:28:42;3.03;;;2.17;;
17993;SDS011;9122;48.406;9.984;2023-02-01T13:31:33;4.37;;;2.07;;
17993;SDS011;9122;48.406;9.984;2023-02-01T13:41:13;3.00;;;2.07;;
17993;SDS011;9122;48.406;9.984;2023-02-01T13:44:13;4.73;;;2.30;;
17993;SDS011;9122;48.406;9.984;2023-02-01T13:47:21;2.73;;;2.23;;
17993;SDS011;9122;48.406;9.984;2023-02-01T13:50:27;3.43;;;2.00;;
17993;SDS011;9122;48.406;9.984;2023-02-01T13:53:16;2.77;;;2.30;;
17993;SDS011;9122;48.406;9.984;2023-02-01T13:59:02;4.73;;;1.90;;
17993;SDS011;9122;48.406;9.984;2023-02-01T14:08:36;3.50;;;2.10;;
17993;SDS011;9122;48.406;9.984;2023-02-01T14:11:32;4.57;;;3.60;;
17993;SDS011;9122;48.406;9.984;2023-02-01T14:20:09;4.73;;;1.70;;
17993;SDS011;9122;48.406;9.984;2023-02-01T14:23:19;3.47;;;2.00;;
17993;SDS011;9122;48.406;9.984;2023-02-01T14:29:56;2.83;;;2.50;;
17993;SDS011;9122;48.406;9.984;2023-02-01T14:32:43;4.83;;;2.30;;
17993;SDS011;9122;48.406;9.984;2023-02-01T14:35:30;4.57;;;2.30;;
17993;SDS011;9122;48.406;9.984;2023-02-01T14:38:14;3.77;;;2.13;;
17993;SDS011;9122;48.406;9.984;2023-02-01T14:53:21;2.83;;;2.00;;
17993;SDS011;9122;48.406;9.984;2023-02-01T14:56:12;5.40;;;2.30;;
17993;SDS011;9122;48.406;9.984;2023-02-01T14:59:01;3.53;;;2.30;;
17993;SDS011;9122;48.406;9.984;2023-02-01T15:01:54;4.53;;;2.30;;
17993;SDS011;9122;48.406;9.984;2023-02-01T15:04:41;5.57;;;2.47;;
17993;SDS011;9122;48.406;9.984;2023-02-01T15:07:27;3.20;;;2.57;;
17993;SDS011;9122;48.406;9.984;2023-02-01T15:10:14;3.93;;;2.13;;
17993;SDS011;9122;48.406;9.984;2023-02-01T15:12:58;6.17;;;2.33;;
17993;SDS011;9122;48.406;9.984;2023-02-01T15:15:43;3.07;;;2.03;;
17993;SDS011;9122;48.406;9.984;2023-02-01T15:18:27;5.97;;;2.10;;
17993;SDS011;9122;48.406;9.984;2023-02-01T15:21:20;5.17;;;2.67;;
17993;SDS011;9122;48.406;9.984;2023-02-01T15:24:10;4.60;;;2.30;;
17993;SDS011;9122;48.406;9.984;2023-02-01T15:27:01;3.10;;;2.37;;
17993;SDS011;9122;48.406;9.984;2023-02-01T15:29:49;8.57;;;2.57;;
17993;SDS011;9122;48.406;9.984;2023-02-01T15:32:35;5.93;;;2.20;;
17993;SDS011;9122;48.406;9.984;2023-02-01T15:41:16;3.40;;;2.40;;
17993;SDS011;9122;48.406;9.984;2023-02-01T15:44:05;5.13;;;2.10;;
17993;SDS011;9122;48.406;9.984;2023-02-01T15:47:05;3.70;;;2.17;;
17993;SDS011;9122;48.406;9.984;2023-02-01T15:49:53;5.83;;;2.33;;
17993;SDS011;9122;48.406;9.984;2023-02-01T15:52:39;3.50;;;2.40;;
17993;SDS011;9122;48.406;9.984;2023-02-01T15:55:38;5.00;;;3.00;;
17993;SDS011;9122;48.406;9.984;2023-02-01T15:58:25;6.03;;;3.67;;
17993;SDS011;9122;48.406;9.984;2023-02-01T16:01:11;5.70;;;2.73;;
17993;SDS011;9122;48.406;9.984;2023-02-01T16:07:06;4.93;;;2.10;;
17993;SDS011;9122;48.406;9.984;2023-02-01T16:10:24;3.00;;;2.13;;
17993;SDS011;9122;48.406;9.984;2023-02-01T16:13:11;7.13;;;2.70;;
17993;SDS011;9122;48.406;9.984;2023-02-01T16:15:56;3.73;;;2.30;;
17993;SDS011;9122;48.406;9.984;2023-02-01T16:18:41;4.00;;;2.43;;
17993;SDS011;9122;48.406;9.984;2023-02-01T16:21:26;4.67;;;2.30;;
17993;SDS011;9122;48.406;9.984;2023-02-01T16:24:10;4.53;;;2.67;;
17993;SDS011;9122;48.406;9.984;2023-02-01T16:26:54;4.53;;;2.90;;
17993;SDS011;9122;48.406;9.984;2023-02-01T16:29:39;2.87;;;2.53;;
17993;SDS011;9122;48.406;9.984;2023-02-01T16:32:24;4.50;;;2.73;;
17993;SDS011;9122;48.406;9.984;2023-02-01T16:35:15;4.50;;;2.63;;
17993;SDS011;9122;48.406;9.984;2023-02-01T16:38:13;6.83;;;2.57;;
17993;SDS011;9122;48.406;9.984;2023-02-01T16:41:01;5.57;;;3.10;;
17993;SDS011;9122;48.406;9.984;2023-02-01T16:43:49;4.50;;;2.20;;
17993;SDS011;9122;48.406;9.984;2023-02-01T16:46:38;4.77;;;2.70;;
17993;SDS011;9122;48.406;9.984;2023-02-01T16:49:25;3.43;;;3.00;;
17993;SDS011;9122;48.406;9.984;2023-02-01T16:52:14;5.33;;;2.97;;
17993;SDS011;9122;48.406;9.984;2023-02-01T16:55:07;2.77;;;2.53;;
17993;SDS011;9122;48.406;9.984;2023-02-01T16:57:55;6.93;;;3.17;;
17993;SDS011;9122;48.406;9.984;2023-02-01T17:00:40;3.93;;;2.43;;
17993;SDS011;9122;48.406;9.984;2023-02-01T17:03:25;4.73;;;2.70;;
17993;SDS011;9122;48.406;9.984;2023-02-01T17:06:12;4.97;;;2.77;;
17993;SDS011;9122;48.406;9.984;2023-02-01T17:08:59;6.17;;;2.83;;
17993;SDS011;9122;48.406;9.984;2023-02-01T17:11:46;3.60;;;2.57;;
17993;SDS011;9122;48.406;9.984;2023-02-01T17:14:38;4.93;;;2.67;;
17993;SDS011;9122;48.406;9.984;2023-02-01T17:17:30;4.17;;;2.73;;
17993;SDS011;9122;48.406;9.984;2023-02-01T17:20:19;7.37;;;3.70;;
17993;SDS011;9122;48.406;9.984;2023-02-01T17:23:06;4.33;;;2.70;;
17993;SDS011;9122;48.406;9.984;2023-02-01T17:25:50;3.53;;;2.47;;
17993;SDS011;9122;48.406;9.984;2023-02-01T17:28:35;6.80;;;2.53;;
17993;SDS011;9122;48.406;9.984;2023-02-01T17:31:20;4.33;;;3.00;;
17993;SDS011;9122;48.406;9.984;2023-02-01T17:34:04;4.13;;;2.63;;
17993;SDS011;9122;48.406;9.984;2023-02-01T17:36:49;8.73;;;2.70;;
17993;SDS011;9122;48.406;9.984;2023-02-01T17:39:34;3.87;;;2.53;;
17993;SDS011;9122;48.406;9.984;2023-02-01T17:42:37;5.53;;;2.67;;
17993;SDS011;9122;48.406;9.984;2023-02-01T17:48:20;5.20;;;2.60;;
17993;SDS011;9122;48.406;9.984;2023-02-01T17:51:11;6.43;;;3.47;;
17993;SDS011;9122;48.406;9.984;2023-02-01T17:53:59;5.70;;;2.83;;
17993;SDS011;9122;48.406;9.984;2023-02-01T17:56:43;6.53;;;2.80;;
17993;SDS011;9122;48.406;9.984;2023-02-01T17:59:30;5.63;;;2.90;;
17993;SDS011;9122;48.406;9.984;2023-02-01T18:05:07;4.10;;;2.80;;
17993;SDS011;9122;48.406;9.984;2023-02-01T18:08:11;4.13;;;3.43;;
17993;SDS011;9122;48.406;9.984;2023-02-01T18:10:57;4.83;;;2.30;;
17993;SDS011;9122;48.406;9.984;2023-02-01T18:13:46;3.33;;;2.90;;
17993;SDS011;9122;48.406;9.984;2023-02-01T18:16:31;5.43;;;2.93;;
17993;SDS011;9122;48.406;9.984;2023-02-01T18:19:17;5.27;;;3.00;;
17993;SDS011;9122;48.406;9.984;2023-02-01T18:22:02;3.47;;;3.00;;
17993;SDS011;9122;48.406;9.984;2023-02-01T18:24:48;4.80;;;2.70;;
17993;SDS011;9122;48.406;9.984;2023-02-01T18:27:33;4.43;;;2.60;;
17993;SDS011;9122;48.406;9.984;2023-02-01T18:30:18;6.57;;;3.53;;
17993;SDS011;9122;48.406;9.984;2023-02-01T18:33:14;5.77;;;3.03;;
17993;SDS011;9122;48.406;9.984;2023-02-01T18:35:59;4.43;;;3.37;;
17993;SDS011;9122;48.406;9.984;2023-02-01T18:38:44;4.73;;;2.63;;
17993;SDS011;9122;48.406;9.984;2023-02-01T18:41:29;7.03;;;3.27;;
17993;SDS011;9122;48.406;9.984;2023-02-01T18:44:14;7.10;;;3.70;;
17993;SDS011;9122;48.406;9.984;2023-02-01T18:46:59;6.60;;;3.07;;
17993;SDS011;9122;48.406;9.984;2023-02-01T18:49:43;9.67;;;4.53;;
17993;SDS011;9122;48.406;9.984;2023-02-01T18:52:28;5.57;;;4.20;;
17993;SDS011;9122;48.406;9.984;2023-02-01T18:55:13;4.63;;;3.43;;
17993;SDS011;9122;48.406;9.984;2023-02-01T18:57:58;4.37;;;3.10;;
17993;SDS011;9122;48.406;9.984;2023-02-01T19:00:44;6.57;;;3.67;;
17993;SDS011;9122;48.406;9.984;2023-02-01T19:03:29;6.70;;;3.50;;
17993;SDS011;9122;48.406;9.984;2023-02-01T19:06:14;6.30;;;3.90;;
17993;SDS011;9122;48.406;9.984;2023-02-01T19:08:58;5.37;;;3.73;;
17993;SDS011;9122;48.406;9.984;2023-02-01T19:11:43;5.23;;;3.67;;
17993;SDS011;9122;48.406;9.984;2023-02-01T19:14:28;5.67;;;4.37;;
17993;SDS011;9122;48.406;9.984;2023-02-01T19:17:12;6.87;;;4.10;;
17993;SDS011;9122;48.406;9.984;2023-02-01T19:19:57;8.40;;;4.53;;
17993;SDS011;9122;48.406;9.984;2023-02-01T19:22:41;4.00;;;3.30;;
17993;SDS011;9122;48.406;9.984;2023-02-01T19:25:26;4.77;;;3.10;;
17993;SDS011;9122;48.406;9.984;2023-02-01T19:28:12;4.57;;;3.23;;
17993;SDS011;9122;48.406;9.984;2023-02-01T19:31:04;4.60;;;3.33;;
17993;SDS011;9122;48.406;9.984;2023-02-01T19:33:49;4.90;;;3.77;;
17993;SDS011;9122;48.406;9.984;2023-02-01T19:36:34;7.03;;;4.03;;
17993;SDS011;9122;48.406;9.984;2023-02-01T19:39:21;5.30;;;3.43;;
17993;SDS011;9122;48.406;9.984;2023-02-01T19:42:07;4.83;;;2.70;;